Time;durP1;ratioP1;P1;durP2;ratioP2;P2;SDS_P1;SDS_P2;PMS_P1;PMS_P2;Temp;Humidity;BMP_temperature;BMP_pressure;BME280_temperature;BME280_humidity;BME280_pressure;Samples;Min_cycle;Max_cycle;Signal;HPM_P1;HPM_P2
2021/05/12 00:00:13;;;;;;;5.35;2.33;;;;;;;17.49;45.03;99015.66;233735;1174;116055;-66
2021/05/12 00:05:38;;;;;;;6.48;2.90;;;;;;;17.39;45.46;99010.48;232388;1174;115477;-69
2021/05/12 00:10:42;;;;;;;4.37;2.87;;;;;;;17.30;45.65;99012.25;234388;1174;115373;-67
2021/05/12 00:15:46;;;;;;;7.63;3.20;;;;;;;17.21;45.55;99016.70;232828;1168;115498;-66
2021/05/12 00:20:50;;;;;;;2.90;2.70;;;;;;;17.10;45.83;99002.63;233454;1174;115600;-67
2021/05/12 00:25:54;;;;;;;8.25;3.40;;;;;;;16.99;46.29;98999.30;233610;1174;115431;-66
2021/05/12 00:30:57;;;;;;;12.40;3.65;;;;;;;16.86;46.59;98991.96;234962;1173;116356;-67
2021/05/12 00:36:01;;;;;;;6.20;3.45;;;;;;;16.80;46.80;98993.95;235073;1174;115181;-67
2021/05/12 00:41:04;;;;;;;7.23;2.90;;;;;;;16.68;47.09;98992.80;235004;1173;118069;-67
2021/05/12 00:46:07;;;;;;;5.10;3.50;;;;;;;16.57;47.21;98988.63;234998;1174;114814;-66
2021/05/12 00:51:11;;;;;;;5.13;3.03;;;;;;;16.41;47.82;98991.55;233964;1174;115201;-66
2021/05/12 00:56:15;;;;;;;8.87;3.57;;;;;;;16.33;47.76;98992.19;234819;1174;115934;-66
2021/05/12 01:01:18;;;;;;;7.70;3.83;;;;;;;16.25;47.59;98987.45;233738;1174;115357;-66
2021/05/12 01:06:28;;;;;;;8.55;2.95;;;;;;;16.21;48.45;98978.36;233894;1174;115486;-66
2021/05/12 01:11:32;;;;;;;6.75;3.23;;;;;;;16.13;48.15;98974.45;233293;1170;115975;-67
2021/05/12 01:16:37;;;;;;;5.00;3.40;;;;;;;16.02;49.00;98977.56;232962;1174;115816;-67
2021/05/12 01:21:41;;;;;;;6.28;3.60;;;;;;;15.93;48.54;98979.27;232534;1174;115983;-69
2021/05/12 01:26:44;;;;;;;5.90;3.03;;;;;;;15.90;48.77;98969.90;233179;1174;115459;-65
2021/05/12 01:31:47;;;;;;;4.15;2.70;;;;;;;15.87;48.23;98969.70;233255;1174;115836;-66
2021/05/12 01:36:51;;;;;;;4.10;3.10;;;;;;;15.81;48.45;98971.64;232963;1174;115995;-67
2021/05/12 01:41:57;;;;;;;5.58;2.98;;;;;;;15.74;48.97;98961.23;232844;1174;115965;-69
2021/05/12 01:47:00;;;;;;;4.43;3.30;;;;;;;15.68;49.24;98964.27;232656;1174;115717;-70
2021/05/12 01:52:03;;;;;;;6.37;2.77;;;;;;;15.61;48.63;98955.74;232604;1174;116602;-70
2021/05/12 01:57:07;;;;;;;5.65;3.48;;;;;;;15.51;49.27;98956.65;232563;1176;115947;-70
2021/05/12 02:02:12;;;;;;;3.47;3.17;;;;;;;15.42;49.57;98955.66;233078;1173;116921;-70
2021/05/12 02:07:16;;;;;;;4.00;3.50;;;;;;;15.34;49.42;98953.59;232512;1173;115566;-69
2021/05/12 02:12:19;;;;;;;6.53;3.70;;;;;;;15.27;49.85;98939.73;232442;1174;115929;-70
2021/05/12 02:17:23;;;;;;;7.18;3.20;;;;;;;15.20;50.02;98942.74;232550;1174;115530;-69
2021/05/12 02:22:26;;;;;;;3.13;2.87;;;;;;;15.15;49.77;98938.22;232584;1170;115102;-69
2021/05/12 02:27:28;;;;;;;8.80;3.17;;;;;;;15.08;50.33;98948.48;232541;1174;115191;-69
2021/05/12 02:32:32;;;;;;;8.43;3.50;;;;;;;15.01;50.50;98942.64;232698;1174;115245;-69
2021/05/12 02:37:35;;;;;;;3.18;2.90;;;;;;;14.98;50.50;98937.83;233992;1170;115209;-67
2021/05/12 02:42:39;;;;;;;9.83;3.50;;;;;;;14.94;50.65;98930.66;233441;1174;115857;-68
2021/05/12 02:47:57;;;;;;;5.43;3.18;;;;;;;14.92;50.44;98930.94;234742;1174;114829;-68
2021/05/12 02:53:01;;;;;;;;;;;;;;;14.86;51.13;98925.89;233279;1175;115353;-66
2021/05/12 02:58:06;;;;;;;3.70;2.73;;;;;;;14.81;51.24;98916.80;235457;1174;102615;-66
2021/05/12 03:03:11;;;;;;;6.13;4.35;;;;;;;14.79;50.82;98928.89;233604;1174;115317;-69
2021/05/12 03:08:16;;;;;;;6.75;3.55;;;;;;;14.77;51.29;98925.70;233006;1174;216997;-69
2021/05/12 03:13:19;;;;;;;4.17;3.00;;;;;;;14.74;51.41;98920.89;232465;1174;115275;-70
2021/05/12 03:18:26;;;;;;;6.60;3.78;;;;;;;14.72;51.96;98923.05;232449;1174;114911;-70
2021/05/12 03:23:29;;;;;;;;;;;;;;;14.72;52.16;98923.05;232770;1168;115052;-68
2021/05/12 03:28:33;;;;;;;4.60;3.10;;;;;;;14.73;51.82;98920.09;234181;1173;103652;-67
2021/05/12 03:33:37;;;;;;;5.37;3.60;;;;;;;14.86;52.37;98929.38;232687;1168;115123;-69
2021/05/12 03:38:41;;;;;;;7.13;3.50;;;;;;;15.11;52.46;98926.45;232508;1173;114869;-69
2021/05/12 03:43:44;;;;;;;5.73;3.63;;;;;;;15.46;51.86;98927.95;232468;1174;115298;-69
2021/05/12 03:48:47;;;;;;;5.55;3.75;;;;;;;15.74;51.38;98933.56;232583;1174;116065;-69
2021/05/12 03:53:50;;;;;;;7.50;3.33;;;;;;;15.90;51.11;98929.58;232496;1174;115614;-70
2021/05/12 03:58:53;;;;;;;5.48;3.13;;;;;;;16.33;50.53;98926.84;232691;1173;115986;-68
2021/05/12 04:03:55;;;;;;;13.40;4.10;;;;;;;16.53;50.39;98923.83;232601;1174;115535;-68
2021/05/12 04:08:58;;;;;;;2.63;2.37;;;;;;;16.95;49.87;98925.59;232577;1174;139710;-67
2021/05/12 04:14:01;;;;;;;4.20;3.80;;;;;;;18.79;47.59;98918.77;232406;1174;114755;-68
2021/05/12 04:19:03;;;;;;;8.20;3.78;;;;;;;20.17;45.79;98918.48;233739;1170;115157;-66
2021/05/12 04:24:07;;;;;;;4.50;3.58;;;;;;;20.84;43.93;98928.80;233556;1174;115331;-67
2021/05/12 04:29:11;;;;;;;4.28;3.15;;;;;;;20.24;44.11;98923.40;232943;1174;115251;-67
2021/05/12 04:34:13;;;;;;;7.53;3.27;;;;;;;19.74;43.95;98926.52;233403;1174;114856;-64
2021/05/12 04:39:16;;;;;;;5.27;4.07;;;;;;;19.49;44.14;98925.31;233580;1174;115005;-67
2021/05/12 04:44:18;;;;;;;6.25;3.03;;;;;;;20.06;43.51;98934.22;235105;1174;115609;-68
2021/05/12 04:49:21;;;;;;;11.20;3.57;;;;;;;20.59;43.09;98935.05;235106;1174;116287;-68
2021/05/12 04:54:24;;;;;;;5.13;3.30;;;;;;;21.15;42.24;98937.48;235081;1174;114904;-67
2021/05/12 04:59:27;;;;;;;10.30;3.23;;;;;;;21.41;41.57;98931.99;234600;1174;114931;-67
2021/05/12 05:04:30;;;;;;;5.45;3.43;;;;;;;21.46;41.10;98934.53;234408;1173;115514;-67
2021/05/12 05:09:33;;;;;;;3.07;2.87;;;;;;;23.99;38.82;98930.77;235144;1174;115346;-68
2021/05/12 05:14:36;;;;;;;9.60;3.45;;;;;;;27.94;35.23;98931.55;232561;1174;115113;-67
2021/05/12 05:19:40;;;;;;;7.97;3.83;;;;;;;30.93;32.10;98934.92;232669;1174;114953;-69
2021/05/12 05:24:48;;;;;;;4.70;3.63;;;;;;;33.32;29.47;98935.98;234080;1174;115928;-71
2021/05/12 05:29:51;;;;;;;6.98;2.80;;;;;;;34.94;26.93;98956.79;232496;1174;114812;-69
2021/05/12 05:34:55;;;;;;;7.95;3.08;;;;;;;36.17;25.31;98947.64;232646;1173;115337;-68
2021/05/12 05:40:00;;;;;;;2.55;2.40;;;;;;;37.06;23.37;98946.58;233127;1174;115342;-69
2021/05/12 05:45:05;;;;;;;2.88;2.68;;;;;;;37.51;22.31;98948.72;233226;1174;116392;-70
2021/05/12 05:50:09;;;;;;;5.50;3.00;;;;;;;37.55;21.71;98949.41;232550;1174;115661;-69
2021/05/12 05:55:13;;;;;;;6.93;2.57;;;;;;;37.70;20.94;98947.84;232944;1167;114818;-70
2021/05/12 06:00:18;;;;;;;3.60;2.45;;;;;;;36.58;21.61;98936.13;235063;1174;114462;-73
2021/05/12 06:05:21;;;;;;;5.38;2.73;;;;;;;35.53;22.32;98936.91;233284;1173;115756;-69
2021/05/12 06:10:24;;;;;;;;;;;;;;;35.04;22.56;98944.78;232646;1174;116109;-69
2021/05/12 06:15:27;;;;;;;3.58;2.78;;;;;;;34.00;22.78;98944.45;233157;1174;103027;-71
2021/05/12 06:20:30;;;;;;;9.05;3.08;;;;;;;33.14;23.68;98944.36;233148;1169;115580;-72
2021/05/12 06:25:33;;;;;;;3.40;3.03;;;;;;;31.69;25.17;98945.66;232587;1174;114981;-73
2021/05/12 06:30:37;;;;;;;4.75;3.05;;;;;;;30.36;25.89;98946.50;232571;1174;116403;-80
2021/05/12 06:35:41;;;;;;;8.03;3.20;;;;;;;28.98;26.72;98937.98;232427;1174;117075;-79
2021/05/12 06:40:45;;;;;;;6.70;3.68;;;;;;;28.15;28.27;98943.58;233783;1174;116976;-76
2021/05/12 06:45:48;;;;;;;5.80;3.65;;;;;;;27.54;29.39;98935.61;232879;1172;116442;-75
2021/05/12 06:50:53;;;;;;;8.00;4.10;;;;;;;27.24;30.08;98943.70;232455;1175;116196;-71
2021/05/12 06:55:57;;;;;;;8.20;4.70;;;;;;;27.61;30.83;98935.75;233238;1174;115432;-72
2021/05/12 07:00:59;;;;;;;6.78;3.50;;;;;;;28.84;30.33;98940.56;232889;1174;115810;-71
2021/05/12 07:06:02;;;;;;;5.38;3.45;;;;;;;30.23;29.91;98945.28;233485;1174;115004;-71
2021/05/12 07:11:06;;;;;;;7.30;4.30;;;;;;;31.01;28.81;98942.02;234297;1174;116670;-72
2021/05/12 07:16:08;;;;;;;15.33;3.98;;;;;;;31.37;28.37;98945.64;232526;1174;116413;-72
2021/05/12 07:21:11;;;;;;;6.43;3.85;;;;;;;31.18;29.11;98938.55;232312;1174;118797;-72
2021/05/12 07:26:14;;;;;;;7.40;3.53;;;;;;;31.08;29.11;98939.29;232461;1174;116315;-70
2021/05/12 07:31:19;;;;;;;11.90;3.75;;;;;;;30.87;29.28;98936.51;232352;1174;116134;-72
2021/05/12 07:36:21;;;;;;;18.85;3.35;;;;;;;30.76;29.31;98940.01;233157;1175;118060;-73
2021/05/12 07:41:25;;;;;;;5.10;3.47;;;;;;;30.52;30.62;98946.19;232508;1174;116508;-73
2021/05/12 07:46:28;;;;;;;6.83;3.70;;;;;;;30.48;31.15;98943.42;232362;1176;117963;-75
2021/05/12 07:51:31;;;;;;;3.95;3.60;;;;;;;30.30;31.34;98942.54;232552;1176;116932;-77
2021/05/12 07:56:34;;;;;;;12.60;5.27;;;;;;;30.26;31.87;98932.72;232388;1174;117052;-71
2021/05/12 08:01:42;;;;;;;9.35;3.60;;;;;;;30.24;31.82;98933.11;232571;1173;116408;-72
2021/05/12 08:06:45;;;;;;;8.80;4.23;;;;;;;30.32;31.92;98925.66;232702;1175;116152;-71
2021/05/12 08:11:48;;;;;;;8.90;4.00;;;;;;;30.44;32.13;98919.83;232387;1175;115788;-71
2021/05/12 08:16:51;;;;;;;7.20;4.23;;;;;;;30.48;32.34;98907.67;232460;1174;115704;-76
2021/05/12 08:21:55;;;;;;;6.27;2.90;;;;;;;30.43;32.48;98910.79;232441;1174;115175;-73
2021/05/12 08:27:03;;;;;;;8.53;4.98;;;;;;;30.19;32.21;98907.94;232406;1174;115345;-71
2021/05/12 08:32:12;;;;;;;8.25;3.68;;;;;;;30.08;32.46;98907.88;232575;1174;116116;-74
2021/05/12 08:37:15;;;;;;;8.40;3.90;;;;;;;29.90;33.04;98905.02;232353;1174;116568;-73
2021/05/12 08:42:19;;;;;;;5.53;4.40;;;;;;;29.98;32.09;98900.33;232406;1174;116047;-72
2021/05/12 08:47:24;;;;;;;7.03;3.48;;;;;;;30.17;33.27;98907.53;233136;1174;116196;-73
2021/05/12 08:52:28;;;;;;;8.50;4.13;;;;;;;29.98;32.63;98908.57;233215;1174;116487;-72
2021/05/12 08:57:31;;;;;;;5.90;3.80;;;;;;;29.98;32.79;98903.08;232481;1176;115934;-74
2021/05/12 09:02:34;;;;;;;10.13;4.18;;;;;;;29.87;31.64;98899.50;234376;1174;115903;-74
2021/05/12 09:07:36;;;;;;;5.95;4.03;;;;;;;29.82;32.63;98897.90;233910;1174;116061;-71
2021/05/12 09:12:51;;;;;;;5.50;3.95;;;;;;;29.98;33.15;98894.83;232526;1167;115350;-72
2021/05/12 09:17:57;;;;;;;15.00;4.45;;;;;;;30.15;31.85;98878.47;232486;1174;116131;-72
2021/05/12 09:23:01;;;;;;;4.88;3.58;;;;;;;30.19;32.58;98883.99;232386;1174;115768;-72
2021/05/12 09:28:16;;;;;;;7.85;4.35;;;;;;;30.24;33.09;98886.38;232863;1175;116907;-72
2021/05/12 09:33:28;;;;;;;3.50;3.07;;;;;;;30.28;32.28;98875.36;232576;1174;117226;-72
2021/05/12 09:38:33;;;;;;;5.00;3.30;;;;;;;30.08;32.00;98878.44;233007;1174;115551;-75
2021/05/12 09:43:46;;;;;;;5.45;3.10;;;;;;;29.85;33.00;98885.36;232220;1169;116058;-72
2021/05/12 09:49:00;;;;;;;4.38;3.98;;;;;;;30.08;33.58;98872.16;232392;1174;116019;-71
2021/05/12 09:54:17;;;;;;;6.10;4.25;;;;;;;30.41;32.37;98863.64;232487;1174;115464;-71
2021/05/12 09:59:24;;;;;;;12.70;3.70;;;;;;;30.60;32.57;98870.78;232455;1174;115685;-72
2021/05/12 10:09:42;;;;;;;8.43;2.83;;;;;;;30.42;33.11;98867.18;232840;1174;116044;-72
2021/05/12 10:14:49;;;;;;;3.90;3.25;;;;;;;30.11;32.81;98860.39;232493;1174;114947;-71
2021/05/12 10:19:52;;;;;;;4.87;3.33;;;;;;;30.17;32.71;98856.10;232432;1174;115737;-71
2021/05/12 10:24:55;;;;;;;3.60;3.30;;;;;;;30.33;32.71;98856.53;233038;1174;115520;-72
2021/05/12 10:30:03;;;;;;;3.70;2.40;;;;;;;30.42;32.75;98856.18;232383;1174;115520;-70
2021/05/12 10:35:14;;;;;;;6.08;2.73;;;;;;;30.52;32.85;98851.89;233820;1174;116751;-73
2021/05/12 10:40:22;;;;;;;17.18;3.30;;;;;;;30.58;32.83;98845.63;233385;1174;116455;-71
2021/05/12 10:45:50;;;;;;;4.98;2.60;;;;;;;30.50;32.39;98855.03;233035;1174;116223;-75
2021/05/12 10:50:55;;;;;;;8.77;3.00;;;;;;;30.52;32.12;98847.18;232433;1174;115764;-73
2021/05/12 10:56:03;;;;;;;3.93;2.57;;;;;;;30.61;31.28;98846.81;234759;1174;115696;-71
2021/05/12 11:01:11;;;;;;;8.03;2.50;;;;;;;30.59;30.70;98835.41;232269;1174;115714;-75
2021/05/12 11:06:21;;;;;;;2.93;2.73;;;;;;;30.72;31.73;98833.88;234974;1174;136990;-71
2021/05/12 11:11:26;;;;;;;2.10;1.98;;;;;;;30.82;31.93;98841.37;234373;1174;115554;-71
2021/05/12 11:16:32;;;;;;;5.13;3.03;;;;;;;30.79;30.55;98839.39;233698;1167;115085;-72
2021/05/12 11:21:39;;;;;;;;;;;;;;;30.65;32.10;98831.89;233284;1174;115309;-73
2021/05/12 11:26:59;;;;;;;3.93;2.37;;;;;;;30.59;32.64;98821.66;233664;1174;103126;-72
2021/05/12 11:32:07;;;;;;;5.20;2.27;;;;;;;30.53;32.40;98828.72;233356;1167;115080;-71
2021/05/12 11:37:19;;;;;;;6.37;3.77;;;;;;;30.41;31.37;98819.64;232348;1174;116093;-71
2021/05/12 11:42:33;;;;;;;9.30;3.05;;;;;;;30.36;30.61;98820.02;233389;1174;117679;-71
2021/05/12 11:47:39;;;;;;;3.68;3.20;;;;;;;30.05;30.33;98823.45;232402;1174;114878;-71
2021/05/12 11:52:46;;;;;;;8.25;3.70;;;;;;;29.75;30.45;98821.72;232371;1174;115083;-70
2021/05/12 11:57:51;;;;;;;10.85;4.33;;;;;;;29.47;31.20;98821.56;233138;1174;119384;-72
2021/05/12 12:03:04;;;;;;;5.65;3.40;;;;;;;29.47;31.44;98816.06;232448;1174;115595;-71
2021/05/12 12:08:13;;;;;;;4.47;3.30;;;;;;;29.44;31.51;98806.64;232466;1174;115970;-71
2021/05/12 12:13:18;;;;;;;6.55;3.58;;;;;;;29.31;31.31;98808.11;232316;1169;115982;-70
2021/05/12 12:18:33;;;;;;;3.40;3.20;;;;;;;29.19;31.13;98804.87;232720;1174;116119;-72
2021/05/12 12:23:40;;;;;;;7.80;3.70;;;;;;;29.05;31.11;98795.34;232314;1174;115331;-71
2021/05/12 12:28:45;;;;;;;7.47;3.37;;;;;;;28.88;31.30;98801.50;232316;1174;115709;-70
2021/05/12 12:34:08;;;;;;;14.00;3.60;;;;;;;28.80;32.09;98794.34;233333;1174;114941;-70
2021/05/12 12:39:13;;;;;;;3.37;2.80;;;;;;;28.74;31.27;98801.36;232623;1174;115406;-67
2021/05/12 12:44:31;;;;;;;7.78;2.55;;;;;;;28.70;30.96;98797.80;233225;1175;115809;-69
2021/05/12 12:50:00;;;;;;;7.50;3.30;;;;;;;28.67;31.84;98790.31;233463;1174;116221;-69
2021/05/12 12:55:33;;;;;;;4.70;3.10;;;;;;;28.64;31.04;98791.07;232433;1174;115892;-70
2021/05/12 13:00:39;;;;;;;10.27;4.57;;;;;;;28.44;30.71;98788.52;235074;1174;137345;-70
2021/05/12 13:06:00;;;;;;;7.70;2.85;;;;;;;28.42;30.75;98788.13;235096;1174;117126;-71
2021/05/12 13:11:05;;;;;;;5.95;2.80;;;;;;;28.43;30.79;98784.20;235167;1174;116398;-71
2021/05/12 13:16:25;;;;;;;3.43;3.13;;;;;;;28.48;30.64;98783.08;235063;1174;115249;-71
2021/05/12 13:21:31;;;;;;;4.33;2.70;;;;;;;28.44;30.58;98782.25;233047;1174;115176;-70
2021/05/12 13:26:42;;;;;;;8.93;3.38;;;;;;;28.38;30.40;98781.83;232465;1174;115493;-71
2021/05/12 13:31:48;;;;;;;5.30;3.23;;;;;;;28.23;30.10;98771.86;232750;1174;115325;-70
2021/05/12 13:36:55;;;;;;;9.10;3.35;;;;;;;28.17;30.91;98767.84;232630;1174;115361;-72
2021/05/12 13:42:01;;;;;;;3.20;2.90;;;;;;;28.08;30.66;98770.12;232648;1174;115262;-71
2021/05/12 13:47:04;;;;;;;10.70;2.47;;;;;;;27.96;30.40;98759.40;232987;1174;116241;-71
2021/05/12 13:52:09;;;;;;;4.85;2.80;;;;;;;27.85;30.90;98762.00;233013;1174;114756;-71
2021/05/12 13:57:21;;;;;;;4.03;2.43;;;;;;;27.87;31.00;98745.20;232335;1174;115534;-71
2021/05/12 14:07:38;;;;;;;7.65;2.83;;;;;;;27.72;30.76;98745.05;232936;1176;116792;-70
2021/05/12 14:12:48;;;;;;;4.55;2.70;;;;;;;27.60;30.50;98720.64;232375;1175;115687;-70
2021/05/12 14:17:53;;;;;;;4.55;2.70;;;;;;;27.59;30.73;98731.95;233183;1174;116003;-70
2021/05/12 14:22:56;;;;;;;1.80;1.70;;;;;;;27.57;30.64;98729.56;232507;1174;115560;-70
2021/05/12 14:28:01;;;;;;;7.83;2.25;;;;;;;27.57;30.79;98721.34;232869;1174;117779;-71
2021/05/12 14:33:05;;;;;;;11.08;2.78;;;;;;;27.51;31.10;98714.64;233366;1174;175233;-70
2021/05/12 14:38:09;;;;;;;7.05;2.48;;;;;;;27.49;31.04;98711.48;232355;1174;115642;-70
2021/05/12 14:43:13;;;;;;;2.40;2.20;;;;;;;27.39;30.57;98704.71;233336;1174;115419;-70
2021/05/12 14:48:24;;;;;;;2.18;1.85;;;;;;;27.21;30.33;98700.17;232180;1177;114774;-70
2021/05/12 14:53:31;;;;;;;3.53;1.93;;;;;;;27.05;30.37;98697.59;234604;1174;115683;-71
2021/05/12 15:09:20;;;;;;;17.13;3.65;;;;;;;26.90;30.56;98682.91;234113;1174;115080;-69
2021/05/12 15:14:24;;;;;;;5.00;2.03;;;;;;;26.84;30.22;98681.64;234436;1174;115641;-69
2021/05/12 15:19:31;;;;;;;4.60;2.30;;;;;;;26.66;30.32;98691.50;233331;1174;115412;-69
2021/05/12 15:24:34;;;;;;;3.33;2.60;;;;;;;26.42;30.44;98682.55;233412;1174;115555;-69
2021/05/12 15:29:38;;;;;;;3.58;1.70;;;;;;;26.27;30.81;98680.70;233722;1174;115486;-69
2021/05/12 15:34:42;;;;;;;6.45;2.15;;;;;;;26.17;30.66;98675.84;233166;1171;116098;-69
2021/05/12 15:39:46;;;;;;;9.08;1.93;;;;;;;26.07;31.10;98673.70;233446;1174;115879;-69
2021/05/12 15:44:49;;;;;;;1.88;1.78;;;;;;;26.01;31.43;98664.22;233084;1174;115163;-69
2021/05/12 15:49:52;;;;;;;3.37;1.80;;;;;;;25.93;31.11;98659.81;233272;1166;115045;-70
2021/05/12 15:54:56;;;;;;;3.00;1.80;;;;;;;25.82;31.35;98668.58;232646;1174;116477;-70
2021/05/12 16:00:01;;;;;;;3.73;1.63;;;;;;;25.70;31.67;98663.27;232387;1174;116648;-70
2021/05/12 16:05:08;;;;;;;4.65;1.70;;;;;;;25.60;31.90;98657.59;232699;1174;117279;-70
2021/05/12 16:10:22;;;;;;;7.23;2.27;;;;;;;25.48;32.00;98658.52;232696;1174;115840;-70
2021/05/12 16:15:27;;;;;;;1.60;1.05;;;;;;;25.40;32.00;98663.03;232593;1176;116221;-70
2021/05/12 16:20:31;;;;;;;5.43;2.08;;;;;;;25.33;32.68;98653.94;232877;1171;116093;-70
2021/05/12 16:25:34;;;;;;;12.40;1.80;;;;;;;25.23;32.74;98655.29;232622;1175;117077;-70
2021/05/12 16:30:37;;;;;;;4.43;2.33;;;;;;;25.13;33.06;98664.81;232640;1174;117156;-69
2021/05/12 16:35:41;;;;;;;2.08;1.75;;;;;;;25.03;32.84;98662.66;233032;1174;115668;-70
2021/05/12 16:40:45;;;;;;;2.80;1.70;;;;;;;24.93;33.55;98663.18;232592;1174;115612;-69
2021/05/12 16:45:49;;;;;;;4.30;2.48;;;;;;;24.80;33.32;98653.53;232762;1174;116712;-72
2021/05/12 16:50:58;;;;;;;6.13;2.68;;;;;;;24.70;33.23;98654.09;234193;1174;116097;-71
2021/05/12 16:56:02;;;;;;;5.13;2.17;;;;;;;24.62;33.72;98663.23;232980;1174;115791;-70
2021/05/12 17:01:06;;;;;;;3.98;2.20;;;;;;;24.50;33.90;98664.91;233813;1174;115833;-70
2021/05/12 17:06:09;;;;;;;5.80;2.20;;;;;;;24.41;34.15;98660.80;233358;1174;116111;-70
2021/05/12 17:11:13;;;;;;;2.68;2.30;;;;;;;24.27;34.52;98658.51;232866;1175;117449;-68
2021/05/12 17:16:17;;;;;;;6.70;3.20;;;;;;;24.12;34.64;98672.89;235227;1176;118705;-68
2021/05/12 17:21:20;;;;;;;7.08;3.18;;;;;;;24.01;34.56;98663.64;235239;1175;115804;-71
2021/05/12 17:26:24;;;;;;;7.38;3.55;;;;;;;23.91;34.46;98666.87;234588;1174;115737;-72
2021/05/12 17:31:27;;;;;;;9.15;3.25;;;;;;;23.78;34.76;98672.39;232313;1174;115568;-69
2021/05/12 17:36:30;;;;;;;6.90;3.23;;;;;;;23.64;35.30;98671.99;232489;1174;115965;-69
2021/05/12 17:41:34;;;;;;;6.18;3.15;;;;;;;23.50;35.26;98679.73;232562;1174;114990;-69
2021/05/12 17:46:38;;;;;;;9.70;3.68;;;;;;;23.38;35.42;98680.56;232481;1174;115317;-70
2021/05/12 17:51:45;;;;;;;2.90;2.50;;;;;;;23.22;35.74;98681.64;234172;1170;115316;-70
2021/05/12 17:56:48;;;;;;;7.28;3.55;;;;;;;23.03;36.46;98682.22;232704;1174;117082;-69
2021/05/12 18:01:51;;;;;;;8.73;5.30;;;;;;;22.87;36.60;98695.73;232698;1174;115394;-67
2021/05/12 18:06:55;;;;;;;11.50;4.55;;;;;;;22.71;36.99;98692.07;233000;1174;116134;-71
2021/05/12 18:22:21;;;;;;;9.93;5.47;;;;;;;22.24;38.50;98692.50;232767;1174;115463;-71
2021/05/12 18:27:24;;;;;;;11.80;7.20;;;;;;;22.04;38.78;98691.42;232629;1174;116102;-70
2021/05/12 18:32:27;;;;;;;8.80;4.53;;;;;;;21.92;38.94;98702.23;232435;1174;115945;-69
2021/05/12 18:42:35;;;;;;;11.30;5.83;;;;;;;21.68;39.49;98711.08;232482;1168;116488;-68
2021/05/12 18:47:44;;;;;;;6.60;5.98;;;;;;;21.53;39.79;98708.16;232703;1174;116506;-69
2021/05/12 18:52:48;;;;;;;13.53;6.60;;;;;;;21.39;40.28;98705.73;233381;1174;115747;-70
2021/05/12 18:57:51;;;;;;;5.65;5.20;;;;;;;21.30;40.59;98702.30;233662;1174;116136;-70
2021/05/12 19:03:02;;;;;;;7.00;6.27;;;;;;;21.17;40.75;98704.09;233337;1173;115414;-70
2021/05/12 19:18:27;;;;;;;5.85;5.35;;;;;;;20.93;41.08;98712.86;232603;1176;117058;-69
2021/05/12 19:23:39;;;;;;;5.95;5.38;;;;;;;20.83;41.34;98708.59;235162;1176;116296;-69
2021/05/12 19:44:48;;;;;;;14.08;6.70;;;;;;;20.52;42.75;98729.77;233784;1175;116600;-68
2021/05/12 19:49:55;;;;;;;8.10;5.38;;;;;;;20.38;42.96;98735.41;233451;1175;116199;-67
2021/05/12 19:55:11;;;;;;;12.63;7.10;;;;;;;20.24;43.26;98734.77;232663;1174;115833;-69
2021/05/12 20:00:16;;;;;;;13.87;7.63;;;;;;;20.15;43.60;98731.31;233296;1171;116782;-69
2021/05/12 20:05:27;;;;;;;8.73;6.63;;;;;;;20.05;44.15;98737.05;233354;1174;115444;-66
2021/05/12 20:10:39;;;;;;;9.05;7.40;;;;;;;19.91;44.61;98725.59;232610;1174;116178;-68
2021/05/12 20:15:44;;;;;;;10.00;6.30;;;;;;;19.80;44.65;98733.27;233266;1174;115506;-66
2021/05/12 20:20:48;;;;;;;12.13;7.13;;;;;;;19.71;45.50;98737.88;233261;1174;115537;-66
2021/05/12 20:25:53;;;;;;;10.37;6.07;;;;;;;19.57;46.22;98735.32;232831;1171;115597;-67
2021/05/12 20:30:57;;;;;;;;;;;;;;;19.46;46.60;98736.73;232541;1174;116278;-67
2021/05/12 20:41:24;;;;;;;7.17;6.03;;;;;;;19.21;47.00;98732.89;232616;1174;115229;-68
2021/05/12 20:46:28;;;;;;;13.18;4.73;;;;;;;19.14;47.27;98727.95;232485;1174;115360;-67
2021/05/12 20:51:32;;;;;;;7.13;5.40;;;;;;;19.06;47.25;98728.72;233664;1174;114851;-66
2021/05/12 20:56:39;;;;;;;10.80;5.20;;;;;;;18.97;47.30;98724.41;233666;1174;115189;-67
2021/05/12 21:01:43;;;;;;;4.85;4.40;;;;;;;18.89;47.48;98730.60;233623;1174;115761;-68
2021/05/12 21:06:47;;;;;;;5.13;4.63;;;;;;;18.82;47.17;98729.14;233620;1174;115534;-68
2021/05/12 21:11:51;;;;;;;7.60;5.20;;;;;;;18.76;47.30;98724.99;234108;1174;116572;-68
2021/05/12 21:16:54;;;;;;;5.48;3.70;;;;;;;18.67;47.10;98715.27;232529;1172;115572;-67
2021/05/12 21:22:01;;;;;;;10.40;5.17;;;;;;;18.57;47.13;98718.23;234714;1174;115345;-68
2021/05/12 21:27:04;;;;;;;9.90;4.18;;;;;;;18.45;46.74;98714.20;235171;1174;114885;-69
2021/05/12 21:32:07;;;;;;;4.60;4.18;;;;;;;18.38;46.44;98713.05;234156;1174;115464;-67
2021/05/12 21:37:11;;;;;;;4.33;4.03;;;;;;;18.31;46.34;98712.73;233703;1174;114984;-66
2021/05/12 21:42:20;;;;;;;3.80;3.43;;;;;;;18.23;46.29;98705.38;233668;1174;115225;-68
2021/05/12 21:47:23;;;;;;;7.78;3.53;;;;;;;18.11;46.12;98701.34;233276;1174;116151;-68
2021/05/12 21:52:27;;;;;;;11.45;3.45;;;;;;;18.02;46.12;98699.72;233086;1174;116808;-67
2021/05/12 21:57:29;;;;;;;3.30;3.00;;;;;;;17.93;45.79;98701.56;233307;1174;115559;-67
2021/05/12 22:02:32;;;;;;;4.85;2.85;;;;;;;17.84;45.99;98696.91;233311;1174;115657;-67
2021/05/12 22:23:45;;;;;;;4.60;2.57;;;;;;;17.50;45.71;98688.53;233577;1174;114676;-66
2021/05/12 22:34:11;;;;;;;6.37;3.17;;;;;;;17.32;45.46;98676.84;233046;1174;115240;-66
2021/05/12 22:39:14;;;;;;;4.45;3.78;;;;;;;17.24;45.50;98664.09;233137;1174;115345;-67
2021/05/12 22:44:19;;;;;;;4.03;2.40;;;;;;;17.16;45.55;98654.03;233776;1174;115565;-67
2021/05/12 22:49:23;;;;;;;2.50;2.30;;;;;;;17.10;45.77;98652.58;233569;1174;116070;-66
2021/05/12 22:54:34;;;;;;;2.83;2.50;;;;;;;16.98;45.53;98639.63;232642;1174;115670;-65
2021/05/12 22:59:38;;;;;;;2.90;2.48;;;;;;;16.94;45.64;98640.53;233992;1174;114633;-68
2021/05/12 23:04:44;;;;;;;7.40;3.03;;;;;;;16.89;45.74;98637.95;233513;1174;115320;-66
2021/05/12 23:09:48;;;;;;;3.80;2.40;;;;;;;16.81;45.90;98640.25;234771;1174;115218;-67
2021/05/12 23:14:51;;;;;;;7.50;2.80;;;;;;;16.75;45.83;98649.55;233977;1174;114945;-66
2021/05/12 23:19:55;;;;;;;2.70;2.50;;;;;;;16.70;46.11;98644.28;234989;1173;115064;-68
2021/05/12 23:25:00;;;;;;;5.43;2.48;;;;;;;16.65;45.79;98643.58;233694;1174;115376;-67
2021/05/12 23:30:05;;;;;;;5.88;3.25;;;;;;;16.60;45.75;98638.27;235090;1174;114760;-67
2021/05/12 23:35:11;;;;;;;3.35;3.05;;;;;;;16.53;45.96;98643.25;234660;1174;116370;-67
2021/05/12 23:40:20;;;;;;;2.47;2.03;;;;;;;16.44;45.78;98641.28;235004;1174;115362;-67
2021/05/12 23:45:23;;;;;;;4.10;2.67;;;;;;;16.36;45.72;98647.34;233633;1174;115352;-66
2021/05/12 23:50:26;;;;;;;3.30;3.00;;;;;;;16.29;45.88;98644.25;232965;1174;115574;-65
2021/05/12 23:55:29;;;;;;;5.73;2.35;;;;;;;16.18;46.08;98642.88;233336;1174;114537;-66
